createdAt,value
2022-12-23T00:02:24.084Z,26.67
2022-12-23T00:05:26.590Z,24.60
2022-12-23T00:08:28.807Z,23.75
2022-12-23T00:11:31.220Z,23.95
2022-12-23T00:14:51.683Z,23.17
2022-12-23T00:17:54.140Z,23.95
2022-12-23T00:21:08.485Z,25.92
2022-12-23T00:24:12.150Z,26.87
2022-12-23T00:27:14.303Z,25.80
2022-12-23T00:30:17.012Z,24.73
2022-12-23T00:33:24.636Z,24.25
2022-12-23T00:36:29.890Z,26.02
2022-12-23T00:39:54.785Z,26.33
2022-12-23T00:42:58.696Z,24.73
2022-12-23T00:46:00.887Z,23.75
2022-12-23T00:49:22.297Z,25.92
2022-12-23T00:52:24.464Z,25.90
2022-12-23T00:55:27.076Z,24.33
2022-12-23T00:58:29.389Z,23.67
2022-12-23T01:01:50.658Z,26.60
2022-12-23T01:05:11.429Z,25.40
2022-12-23T01:08:13.874Z,27.00
2022-12-23T01:11:16.099Z,24.37
2022-12-23T01:14:18.663Z,24.23
2022-12-23T01:17:20.868Z,28.02
2022-12-23T01:20:23.753Z,26.60
2022-12-23T01:23:25.880Z,25.42
2022-12-23T01:26:28.366Z,26.25
2022-12-23T01:29:30.740Z,25.60
2022-12-23T01:32:33.209Z,24.75
2022-12-23T01:35:35.381Z,25.20
2022-12-23T01:38:37.803Z,26.42
2022-12-23T01:41:58.411Z,26.27
2022-12-23T01:45:02.554Z,28.77
2022-12-23T01:48:11.454Z,27.27
2022-12-23T01:51:34.064Z,27.87
2022-12-23T01:54:37.322Z,29.23
2022-12-23T01:57:42.278Z,30.27
2022-12-23T02:01:03.478Z,28.87
2022-12-23T02:04:10.878Z,28.45
2022-12-23T02:07:32.227Z,28.67
2022-12-23T02:11:06.999Z,29.48
2022-12-23T02:14:35.615Z,30.88
2022-12-23T02:17:59.954Z,31.27
2022-12-23T02:21:23.866Z,32.45
2022-12-23T02:24:48.130Z,32.38
2022-12-23T02:28:10.639Z,34.08
2022-12-23T02:31:39.136Z,32.83
2022-12-23T02:35:11.208Z,33.00
2022-12-23T02:38:29.572Z,32.95
2022-12-23T02:41:56.450Z,34.20
2022-12-23T02:45:39.917Z,36.10
2022-12-23T02:49:11.306Z,34.75
2022-12-23T02:52:17.094Z,35.60
2022-12-23T02:55:24.499Z,36.88
2022-12-23T02:58:34.026Z,35.97
2022-12-23T03:01:38.775Z,35.42
2022-12-23T03:04:42.306Z,35.28
2022-12-23T03:07:44.623Z,36.92
2022-12-23T03:11:04.873Z,34.40
2022-12-23T03:14:21.024Z,35.90
2022-12-23T03:17:42.984Z,33.13
2022-12-23T03:20:52.295Z,35.70
2022-12-23T03:24:08.567Z,35.35
2022-12-23T03:27:22.211Z,36.15
2022-12-23T03:30:25.356Z,34.75
2022-12-23T03:33:51.856Z,35.90
2022-12-23T03:36:58.014Z,36.25
2022-12-23T03:40:19.359Z,37.88
2022-12-23T03:43:34.463Z,36.75
2022-12-23T03:46:46.161Z,36.20
2022-12-23T03:50:01.801Z,36.75
2022-12-23T03:53:22.736Z,35.65
2022-12-23T03:56:31.772Z,34.92
2022-12-23T03:59:40.678Z,37.70
2022-12-23T04:02:59.534Z,35.60
2022-12-23T04:06:08.061Z,36.42
2022-12-23T04:09:14.410Z,33.97
2022-12-23T04:12:25.534Z,35.60
2022-12-23T04:15:28.351Z,36.50
2022-12-23T04:18:30.792Z,35.25
2022-12-23T04:21:32.993Z,34.30
2022-12-23T04:24:35.414Z,33.55
2022-12-23T04:27:37.791Z,32.75
2022-12-23T04:30:40.209Z,32.30
2022-12-23T04:33:42.375Z,31.95
2022-12-23T04:36:44.791Z,31.77
2022-12-23T04:39:46.938Z,31.92
2022-12-23T04:42:49.441Z,29.35
2022-12-23T04:45:51.940Z,31.02
2022-12-23T04:48:54.392Z,30.85
2022-12-23T04:51:56.593Z,29.48
2022-12-23T04:54:59.046Z,28.15
2022-12-23T04:58:01.170Z,28.83
2022-12-23T05:01:12.854Z,27.02
2022-12-23T05:04:15.137Z,27.80
2022-12-23T05:07:17.713Z,26.65
2022-12-23T05:10:19.953Z,24.30
2022-12-23T05:13:22.712Z,23.77
2022-12-23T05:16:24.961Z,22.60
2022-12-23T05:19:27.463Z,24.60
2022-12-23T05:22:29.601Z,22.73
2022-12-23T05:25:36.617Z,22.75
2022-12-23T05:28:38.940Z,22.67
2022-12-23T05:31:41.390Z,22.17
2022-12-23T05:34:43.550Z,20.55
2022-12-23T05:37:45.987Z,23.08
2022-12-23T05:40:48.767Z,22.58
2022-12-23T05:43:54.119Z,23.40
2022-12-23T05:46:56.381Z,23.75
2022-12-23T05:49:58.892Z,22.42
2022-12-23T05:53:01.157Z,20.45
2022-12-23T05:56:05.479Z,19.95
2022-12-23T05:59:07.675Z,21.27
2022-12-23T06:02:10.341Z,21.05
2022-12-23T06:05:13.626Z,22.23
2022-12-23T06:08:15.812Z,20.58
2022-12-23T06:11:18.250Z,19.52
2022-12-23T06:14:25.175Z,18.17
2022-12-23T06:17:31.091Z,18.67
2022-12-23T06:20:33.344Z,20.77
2022-12-23T06:23:35.903Z,19.08
2022-12-23T06:26:38.083Z,20.48
2022-12-23T06:29:41.033Z,19.58
2022-12-23T06:32:43.270Z,20.35
2022-12-23T06:35:45.881Z,18.00
2022-12-23T06:38:48.017Z,18.62
2022-12-23T06:41:50.597Z,17.52
2022-12-23T06:44:52.777Z,19.95
2022-12-23T06:47:55.267Z,20.12
2022-12-23T06:50:57.519Z,19.98
2022-12-23T06:54:00.438Z,18.23
2022-12-23T06:57:02.804Z,18.23
2022-12-23T07:00:09.146Z,18.75
2022-12-23T07:03:11.349Z,18.67
2022-12-23T07:06:14.042Z,19.00
2022-12-23T07:09:16.293Z,18.00
2022-12-23T07:12:19.374Z,17.92
2022-12-23T07:15:21.524Z,18.73
2022-12-23T07:18:24.809Z,17.08
2022-12-23T07:21:29.824Z,17.33
2022-12-23T07:24:32.716Z,16.80
2022-12-23T07:27:35.472Z,17.58
2022-12-23T07:30:37.962Z,19.00
2022-12-23T07:33:40.204Z,18.12
2022-12-23T07:36:42.612Z,19.25
2022-12-23T07:39:44.774Z,18.67
2022-12-23T07:42:53.779Z,19.55
2022-12-23T07:46:00.346Z,17.85
2022-12-23T07:49:03.013Z,20.00
2022-12-23T07:52:05.263Z,18.33
2022-12-23T07:55:08.128Z,19.20
2022-12-23T07:58:10.306Z,20.05
2022-12-23T08:01:12.796Z,16.92
2022-12-23T08:04:15.281Z,17.98
2022-12-23T08:07:17.467Z,16.90
2022-12-23T08:10:19.933Z,18.33
2022-12-23T08:13:22.095Z,17.92
2022-12-23T08:16:24.526Z,19.30
2022-12-23T08:19:26.706Z,19.75
2022-12-23T08:22:31.883Z,19.27
2022-12-23T08:25:34.008Z,18.83
2022-12-23T08:28:38.169Z,20.10
2022-12-23T08:31:40.358Z,19.87
2022-12-23T08:34:43.037Z,20.05
2022-12-23T08:37:45.296Z,19.98
2022-12-23T08:40:47.829Z,20.67
2022-12-23T08:43:51.301Z,22.35
2022-12-23T08:46:55.123Z,20.40
2022-12-23T08:49:57.339Z,20.62
2022-12-23T08:52:59.759Z,21.30
2022-12-23T08:56:08.178Z,22.27
2022-12-23T08:59:19.315Z,22.80
2022-12-23T09:02:22.207Z,24.10
2022-12-23T09:05:24.914Z,23.30
2022-12-23T09:08:27.110Z,24.40
2022-12-23T09:11:30.182Z,22.83
2022-12-23T09:14:32.341Z,22.70
2022-12-23T09:17:34.807Z,24.35
2022-12-23T09:20:37.976Z,23.20
2022-12-23T09:23:40.810Z,24.20
2022-12-23T09:26:43.007Z,24.52
2022-12-23T09:29:45.384Z,26.00
2022-12-23T09:32:47.557Z,24.15
2022-12-23T09:35:49.960Z,22.70
2022-12-23T09:38:57.143Z,24.48
2022-12-23T09:42:07.948Z,22.15
2022-12-23T09:45:40.308Z,20.08
2022-12-23T09:49:03.082Z,22.98
2022-12-23T09:52:12.100Z,20.48
2022-12-23T09:55:15.779Z,22.60
2022-12-23T09:58:23.505Z,20.60
2022-12-23T10:01:51.615Z,19.87
2022-12-23T10:05:05.150Z,20.45
2022-12-23T10:08:22.644Z,19.58
2022-12-23T10:11:32.056Z,19.60
2022-12-23T10:17:41.968Z,18.12
2022-12-23T10:20:53.263Z,19.77
2022-12-23T10:23:55.881Z,20.08
2022-12-23T10:27:04.153Z,20.45
2022-12-23T10:30:51.353Z,23.08
2022-12-23T10:34:24.931Z,21.08
2022-12-23T10:37:58.327Z,19.87
2022-12-23T10:41:16.595Z,20.80
2022-12-23T10:44:43.436Z,21.67
2022-12-23T10:48:00.044Z,21.60
2022-12-23T10:51:09.868Z,22.13
2022-12-23T10:54:34.785Z,22.80
2022-12-23T10:57:37.228Z,25.67
2022-12-23T11:00:42.978Z,25.35
2022-12-23T11:04:02.551Z,25.60
2022-12-23T11:07:42.053Z,24.73
2022-12-23T11:10:35.086Z,24.15
2022-12-23T11:13:40.535Z,22.20
2022-12-23T11:16:46.433Z,25.25
2022-12-23T11:20:07.827Z,25.33
2022-12-23T11:23:27.316Z,25.12
2022-12-23T11:26:29.524Z,23.80
2022-12-23T11:29:35.456Z,23.90
2022-12-23T11:32:37.856Z,23.42
2022-12-23T11:35:40.331Z,24.50
2022-12-23T11:41:26.499Z,32.55
2022-12-23T11:44:37.891Z,25.95
2022-12-23T11:47:41.539Z,24.15
2022-12-23T11:50:44.216Z,24.58
2022-12-23T11:53:46.322Z,25.50
2022-12-23T11:56:51.995Z,22.52
2022-12-23T12:00:01.435Z,24.92
2022-12-23T12:03:06.411Z,24.65
2022-12-23T12:06:14.949Z,24.12
2022-12-23T12:09:17.924Z,26.77
2022-12-23T12:12:21.947Z,26.52
2022-12-23T12:15:39.317Z,25.77
2022-12-23T12:18:43.827Z,25.37
2022-12-23T12:21:48.452Z,25.42
2022-12-23T12:24:53.564Z,26.65
2022-12-23T12:28:06.253Z,25.20
2022-12-23T12:31:11.832Z,25.40
2022-12-23T12:34:35.699Z,27.70
2022-12-23T12:37:48.145Z,26.00
2022-12-23T12:41:16.573Z,26.08
2022-12-23T12:44:43.694Z,27.48
2022-12-23T12:47:55.196Z,27.02
2022-12-23T12:51:26.470Z,27.15
2022-12-23T12:55:01.798Z,26.15
2022-12-23T12:58:04.250Z,26.08
2022-12-23T13:01:33.024Z,26.33
2022-12-23T13:05:09.363Z,26.37
2022-12-23T13:08:42.888Z,25.73
2022-12-23T13:12:01.771Z,26.85
2022-12-23T13:15:23.493Z,27.08
2022-12-23T13:18:39.106Z,28.30
2022-12-23T13:21:55.075Z,26.90
2022-12-23T13:25:08.889Z,27.45
2022-12-23T13:28:20.009Z,26.30
2022-12-23T13:31:46.852Z,27.08
2022-12-23T13:35:09.928Z,26.98
2022-12-23T13:38:30.699Z,26.35
2022-12-23T13:41:36.936Z,25.70
2022-12-23T13:44:39.753Z,29.10
2022-12-23T13:48:04.315Z,27.05
2022-12-23T13:51:30.593Z,27.80
2022-12-23T13:55:07.443Z,27.37
2022-12-23T13:58:21.848Z,26.37
2022-12-23T14:01:42.371Z,28.17
2022-12-23T14:04:59.447Z,28.25
2022-12-23T14:08:07.017Z,29.08
2022-12-23T14:11:21.813Z,29.67
2022-12-23T14:14:53.469Z,30.25
2022-12-23T14:18:17.760Z,32.63
2022-12-23T14:21:25.599Z,30.37
2022-12-23T14:24:37.153Z,32.23
2022-12-23T14:27:58.036Z,31.02
2022-12-23T14:31:03.760Z,30.58
2022-12-23T14:34:17.845Z,32.35
2022-12-23T14:37:20.248Z,32.55
2022-12-23T14:40:37.841Z,32.45
2022-12-23T14:43:46.372Z,32.63
2022-12-23T14:46:48.558Z,31.80
2022-12-23T14:49:51.271Z,31.17
2022-12-23T14:53:03.652Z,30.30
2022-12-23T14:56:15.051Z,32.03
2022-12-23T14:59:29.993Z,31.67
2022-12-23T15:02:41.391Z,30.98
2022-12-23T15:05:43.964Z,32.33
2022-12-23T15:08:50.608Z,31.08
2022-12-23T15:11:55.207Z,28.70
2022-12-23T15:15:00.149Z,31.73
2022-12-23T15:18:12.349Z,32.67
2022-12-23T15:21:14.747Z,29.63
2022-12-23T15:24:20.147Z,32.58
2022-12-23T15:27:27.908Z,30.90
2022-12-23T15:30:36.504Z,30.88
2022-12-23T15:37:01.847Z,30.65
2022-12-23T15:40:12.737Z,30.98
2022-12-23T15:43:23.819Z,31.58
2022-12-23T15:46:30.075Z,32.33
2022-12-23T15:49:32.682Z,32.63
2022-12-23T15:52:35.124Z,30.92
2022-12-23T15:55:40.273Z,34.70
2022-12-23T15:58:42.971Z,32.55
2022-12-23T16:01:45.315Z,31.90
2022-12-23T16:04:56.350Z,30.62
2022-12-23T16:08:19.333Z,31.62
2022-12-23T16:11:38.007Z,33.08
2022-12-23T16:14:41.356Z,30.73
2022-12-23T16:17:44.010Z,34.88
2022-12-23T16:20:53.653Z,31.70
2022-12-23T16:23:56.983Z,32.35
2022-12-23T16:26:59.185Z,31.33
2022-12-23T16:30:24.121Z,30.65
2022-12-23T16:33:41.461Z,30.50
2022-12-23T16:36:43.976Z,28.48
2022-12-23T16:39:46.115Z,29.30
2022-12-23T16:42:48.578Z,27.48
2022-12-23T16:45:54.763Z,28.17
2022-12-23T16:48:59.710Z,29.08
2022-12-23T16:52:05.404Z,30.80
2022-12-23T16:55:19.279Z,27.08
2022-12-23T16:58:21.477Z,30.15
2022-12-23T17:01:27.870Z,30.65
2022-12-23T17:04:30.125Z,27.52
2022-12-23T17:07:32.541Z,29.52
2022-12-23T17:10:35.340Z,28.98
2022-12-23T17:13:38.300Z,28.65
2022-12-23T17:16:40.558Z,29.73
2022-12-23T17:19:43.085Z,30.15
2022-12-23T17:22:49.061Z,29.90
2022-12-23T17:25:52.170Z,25.67
2022-12-23T17:28:55.082Z,30.90
2022-12-23T17:31:57.705Z,28.10
2022-12-23T17:34:59.880Z,30.77
2022-12-23T17:38:02.349Z,32.60
2022-12-23T17:41:04.807Z,33.08
2022-12-23T17:44:07.689Z,32.75
2022-12-23T17:47:17.637Z,32.60
2022-12-23T17:50:20.415Z,33.00
2022-12-23T17:53:22.605Z,30.27
2022-12-23T17:56:27.361Z,32.05
2022-12-23T17:59:29.545Z,31.42
2022-12-23T18:02:35.127Z,31.67
2022-12-23T18:05:37.578Z,33.65
2022-12-23T18:08:40.208Z,31.37
2022-12-23T18:11:45.309Z,29.45
2022-12-23T18:14:47.584Z,28.85
2022-12-23T18:17:51.192Z,28.83
2022-12-23T18:20:55.815Z,29.45
2022-12-23T18:23:59.834Z,27.90
2022-12-23T18:27:02.037Z,30.60
2022-12-23T18:30:04.921Z,27.92
2022-12-23T18:33:10.425Z,28.15
2022-12-23T18:36:24.301Z,28.35
2022-12-23T18:39:26.469Z,27.83
2022-12-23T18:42:28.904Z,27.42
2022-12-23T18:45:34.973Z,30.10
2022-12-23T18:48:37.405Z,28.58
2022-12-23T18:51:39.558Z,28.60
2022-12-23T18:54:42.034Z,27.15
2022-12-23T18:57:44.232Z,28.10
2022-12-23T19:00:48.248Z,28.00
2022-12-23T19:03:50.382Z,26.48
2022-12-23T19:06:54.084Z,27.23
2022-12-23T19:09:56.243Z,25.73
2022-12-23T19:12:59.627Z,26.17
2022-12-23T19:16:01.910Z,28.02
2022-12-23T19:19:04.446Z,26.95
2022-12-23T19:22:06.567Z,28.40
2022-12-23T19:25:11.536Z,26.92
2022-12-23T19:28:13.661Z,27.25
2022-12-23T19:31:17.293Z,27.10
2022-12-23T19:34:19.491Z,25.83
2022-12-23T19:37:21.913Z,26.70
2022-12-23T19:40:24.156Z,26.20
2022-12-23T19:43:26.556Z,22.62
2022-12-23T19:46:28.790Z,23.90
2022-12-23T19:49:31.473Z,23.40
2022-12-23T19:52:33.715Z,22.98
2022-12-23T19:55:36.103Z,21.27
2022-12-23T19:58:41.356Z,21.95
2022-12-23T20:01:44.462Z,22.85
2022-12-23T20:04:47.095Z,20.48
2022-12-23T20:07:49.228Z,22.05
2022-12-23T20:10:51.640Z,22.20
2022-12-23T20:13:55.178Z,23.35
2022-12-23T20:16:57.665Z,22.45
2022-12-23T20:19:59.830Z,23.92
2022-12-23T20:23:02.224Z,23.65
2022-12-23T20:26:05.238Z,25.12
2022-12-23T20:29:08.983Z,23.45
2022-12-23T20:32:11.108Z,21.95
2022-12-23T20:35:13.598Z,24.42
2022-12-23T20:38:15.837Z,21.73
2022-12-23T20:41:21.303Z,21.75
2022-12-23T20:44:34.569Z,22.42
2022-12-23T20:47:38.897Z,22.27
2022-12-23T20:50:41.670Z,23.62
2022-12-23T20:53:44.407Z,23.62
2022-12-23T20:56:46.509Z,23.70
2022-12-23T20:59:49.120Z,24.45
2022-12-23T21:02:51.359Z,23.65
2022-12-23T21:05:56.763Z,24.90
2022-12-23T21:09:00.453Z,21.17
2022-12-23T21:12:03.664Z,21.85
2022-12-23T21:15:06.208Z,23.05
2022-12-23T21:18:08.595Z,23.58
2022-12-23T21:21:12.234Z,24.42
2022-12-23T21:24:15.291Z,23.55
2022-12-23T21:27:17.526Z,23.85
2022-12-23T21:30:20.024Z,25.05
2022-12-23T21:33:22.174Z,24.70
2022-12-23T21:36:27.135Z,24.20
2022-12-23T21:39:29.500Z,24.50
2022-12-23T21:42:31.964Z,25.12
2022-12-23T21:45:34.171Z,24.05
2022-12-23T21:48:37.834Z,24.02
2022-12-23T21:51:41.535Z,26.25
2022-12-23T21:54:44.450Z,24.55
2022-12-23T21:57:47.041Z,25.08
2022-12-23T22:00:49.544Z,24.08
2022-12-23T22:03:53.234Z,23.95
2022-12-23T22:06:55.399Z,25.37
2022-12-23T22:09:57.851Z,24.75
2022-12-23T22:12:59.955Z,24.23
2022-12-23T22:16:04.338Z,24.27
2022-12-23T22:19:08.690Z,25.17
2022-12-23T22:22:11.126Z,26.37
2022-12-23T22:25:13.223Z,26.95
2022-12-23T22:28:15.601Z,27.00
2022-12-23T22:31:38.398Z,28.87
2022-12-23T22:34:40.862Z,27.40
2022-12-23T22:37:42.969Z,28.17
2022-12-23T22:40:49.433Z,27.95
2022-12-23T22:43:51.673Z,28.77
2022-12-23T22:46:54.451Z,29.23
2022-12-23T22:49:56.830Z,27.60
2022-12-23T22:52:59.300Z,31.02
2022-12-23T22:56:03.628Z,27.40
2022-12-23T22:59:06.075Z,29.02
2022-12-23T23:02:08.276Z,29.33
2022-12-23T23:05:13.075Z,28.58
2022-12-23T23:08:15.582Z,28.25
2022-12-23T23:11:18.291Z,27.92
2022-12-23T23:14:20.685Z,27.87
2022-12-23T23:17:26.092Z,29.70
2022-12-23T23:20:28.319Z,31.33
2022-12-23T23:23:30.722Z,29.42
2022-12-23T23:26:32.962Z,27.65
2022-12-23T23:29:35.782Z,27.90
2022-12-23T23:32:37.904Z,27.80
2022-12-23T23:35:40.537Z,27.87
2022-12-23T23:38:42.728Z,27.25
2022-12-23T23:41:45.325Z,26.62
2022-12-23T23:44:47.439Z,25.50
2022-12-23T23:47:49.911Z,23.70
2022-12-23T23:50:52.029Z,24.83
2022-12-23T23:53:54.527Z,25.10
2022-12-23T23:56:56.654Z,25.45
2022-12-23T23:59:59.100Z,23.90
